• Join FlightAware (Why Join?)
  • Login
  • US Flag 
06:24AM EDT


 

Airport Tracker/Info


-or-


 

Live Flight TrackerFlight Track Log ✈ PDT4207 ✈ 21-Feb-2014 ✈ KPHL - KBGM

Flight Track Log - Related Links

Times and Time Zones

All times are in EST time to prevent confusion due to time zone crossing. See the PDT4207 flight status page for this flight to view local times or setup timezone preferences in your user account.

Time Position Orientation Groundspeed Altitude Reporting Facility
EST Latitude Longitude Course Direction KTS MPH feet Rate Location/Type
09:51PM 39.9000 -75.2333 311° West 121 139 600  Level Philadelphia TRACON
09:51PM 39.9000 -75.2500 270° West 114 131 1,300 1,620 Climbing Philadelphia TRACON
09:52PM 39.9167 -75.2833 303° West 114 131 2,900 1,620 Climbing Philadelphia TRACON
09:53PM 39.9333 -75.3167 303° West 133 153 4,400 1,500 Climbing Philadelphia TRACON
09:54PM 40.0699 -75.4183 339° North  Level FlightAware Approximate
09:54PM 39.9667 -75.3167 360° North 134 154 5,800  Level Philadelphia TRACON
09:55PM 40.1170 -75.4670 323° Northwest  Level FlightAware Approximate
09:55PM 40.0167 -75.3500 333° Northwest 174 200 6,000  Level Philadelphia TRACON
09:56PM 40.1699 -75.5048 311° West  Level FlightAware Approximate
09:56PM 40.0500 -75.3833 323° Northwest 179 206 6,000  Level Philadelphia TRACON
09:57PM 40.0803 -75.4181 319° Northwest 185 213 6,000 120 Level New York Center
09:58PM 40.1164 -75.4531 323° Northwest 192 221 6,300 600 Climbing New York Center
09:59PM 40.1544 -75.4936 321° Northwest 169 194 7,200 900 Climbing New York Center
10:00PM 40.1864 -75.5258 322° Northwest 164 189 8,100 900 Climbing New York Center
10:01PM 40.2358 -75.5400 348° North 164 189 9,000 900 Climbing New York Center
10:02PM 40.2833 -75.5514 350° North 169 194 10,000 960 Climbing New York Center
10:03PM 40.3394 -75.5581 355° North 178 205 11,000 780 Climbing New York Center
10:04PM 40.3911 -75.5697 350° North 183 211 11,600 480 Climbing New York Center
10:05PM 40.4467 -75.5872 347° North 188 216 12,000 180 Climbing New York Center
10:06PM 40.5067 -75.5969 353° North 223 257 12,000 -240 Level New York Center
10:07PM 40.5750 -75.6100 352° North 244 281 11,600 -660 Descending New York Center
10:08PM 40.6619 -75.6217 354° North 274 315 10,700 -840 Descending New York Center
10:09PM 40.7361 -75.6433 348° North 279 321 10,000 -360 Descending New York Center
10:10PM 40.8103 -75.6622 349° North 273 314 10,000  Level New York Center
10:11PM 40.8700 -75.6803 347° North 258 297 10,000  Level New York Center
10:12PM 40.9383 -75.6906 354° North 252 290 10,000 -60 Level New York Center
10:13PM 41.0150 -75.6989 355° North 252 290 9,900 -60 Descending New York Center
10:14PM 41.0808 -75.7203 346° North 252 290 9,900  Level New York Center
10:15PM 41.1403 -75.7411 345° North 252 290 10,000  Climbing New York Center
10:16PM 41.2064 -75.7542 352° North 246 283 10,000  Level New York Center
10:17PM 41.2808 -75.7681 352° North 246 283 10,000  Level New York Center
10:18PM 41.3467 -75.7867 348° North 241 277 10,000  Level New York Center
10:19PM 41.4108 -75.7969 353° North 236 272 10,000 -300 Level New York Center
10:20PM 41.4747 -75.8128 349° North 236 272 9,400 -780 Descending New York Center
10:21PM 41.5367 -75.8286 349° North 236 272 8,500 -720 Descending New York Center
10:22PM 41.6025 -75.8447 350° North 236 272 8,000 -300 Descending New York Center
10:23PM 41.6708 -75.8583 352° North 236 272 8,000  Level New York Center
10:24PM 41.7303 -75.8739 349° North 224 258 8,000 -420 Level New York Center
10:25PM 41.7900 -75.8897 349° North 218 251 7,200 -900 Descending New York Center
10:26PM 41.8500 -75.9025 351° North 231 266 6,300 -960 Descending New York Center
10:27PM 41.9292 -75.9031 360° North 244 281 5,300 -960 Descending New York Center
10:28PM 41.9956 -75.9056 358° North 244 281 4,400 -900 Descending New York Center
10:29PM 42.0475 -75.9094 357° North 235 270 3,500 -660 Descending New York Center
10:30PM 42.1056 -75.9114 359° North 210 242 3,100 -360 Descending New York Center
10:31PM 42.1444 -75.9283 342° North 176 203 2,800 -480 Descending New York Center
10:32PM 42.1706 -75.9500 328° Northwest 136 157 2,200 -360 Descending New York Center
10:33PM 42.2156 -75.9675 344° North 136 157 2,100 -120 Descending New York Center